createdAt,value
2023-04-19T00:02:23.883Z,100.00
2023-04-19T00:04:53.125Z,100.00
2023-04-19T00:07:21.544Z,100.00
2023-04-19T00:09:50.674Z,100.00
2023-04-19T00:12:18.286Z,100.00
2023-04-19T00:14:46.004Z,100.00
2023-04-19T00:17:13.753Z,100.00
2023-04-19T00:19:42.377Z,100.00
2023-04-19T00:22:10.653Z,100.00
2023-04-19T00:24:38.763Z,100.00
2023-04-19T00:27:07.740Z,100.00
2023-04-19T00:29:35.512Z,100.00
2023-04-19T00:32:05.797Z,100.00
2023-04-19T00:34:33.692Z,100.00
2023-04-19T00:37:01.346Z,100.00
2023-04-19T00:39:29.021Z,100.00
2023-04-19T00:41:57.371Z,100.00
2023-04-19T00:44:26.399Z,100.00
2023-04-19T00:46:56.819Z,100.00
2023-04-19T00:49:25.105Z,100.00
2023-04-19T00:51:53.169Z,100.00
2023-04-19T00:54:20.993Z,100.00
2023-04-19T00:56:50.991Z,100.00
2023-04-19T00:59:19.793Z,100.00
2023-04-19T01:01:48.918Z,100.00
2023-04-19T01:04:17.386Z,100.00
2023-04-19T01:06:47.559Z,100.00
2023-04-19T01:09:15.238Z,100.00
2023-04-19T01:11:43.666Z,100.00
2023-04-19T01:14:11.612Z,100.00
2023-04-19T01:16:39.979Z,100.00
2023-04-19T01:19:09.445Z,100.00
2023-04-19T01:21:38.271Z,100.00
2023-04-19T01:24:08.155Z,100.00
2023-04-19T01:26:35.887Z,100.00
2023-04-19T01:29:04.164Z,100.00
2023-04-19T01:31:32.030Z,100.00
2023-04-19T01:33:59.757Z,100.00
2023-04-19T01:36:27.835Z,100.00
2023-04-19T01:38:57.865Z,100.00
2023-04-19T01:41:27.600Z,100.00
2023-04-19T01:43:55.244Z,100.00
2023-04-19T01:46:22.964Z,100.00
2023-04-19T01:48:52.154Z,100.00
2023-04-19T01:51:22.845Z,100.00
2023-04-19T01:53:53.465Z,100.00
2023-04-19T01:56:21.787Z,100.00
2023-04-19T01:58:50.835Z,100.00
2023-04-19T02:01:18.657Z,100.00
2023-04-19T02:03:46.624Z,100.00
2023-04-19T02:06:15.014Z,100.00
2023-04-19T02:08:44.044Z,100.00
2023-04-19T02:11:14.316Z,100.00
2023-04-19T02:13:42.478Z,100.00
2023-04-19T02:16:12.189Z,100.00
2023-04-19T02:18:40.569Z,100.00
2023-04-19T02:21:09.272Z,100.00
2023-04-19T02:23:37.002Z,100.00
2023-04-19T02:26:04.770Z,100.00
2023-04-19T02:28:32.791Z,100.00
2023-04-19T02:31:00.530Z,100.00
2023-04-19T02:33:30.124Z,100.00
2023-04-19T02:35:57.743Z,100.00
2023-04-19T02:38:25.488Z,100.00
2023-04-19T02:40:54.836Z,100.00
2023-04-19T02:43:22.541Z,100.00
2023-04-19T02:45:50.634Z,100.00
2023-04-19T02:48:18.509Z,100.00
2023-04-19T02:50:47.521Z,100.00
2023-04-19T02:53:15.468Z,100.00
2023-04-19T02:55:43.587Z,100.00
2023-04-19T02:58:16.625Z,100.00
2023-04-19T03:01:00.614Z,100.00
2023-04-19T03:03:28.665Z,100.00
2023-04-19T03:05:58.576Z,100.00
2023-04-19T03:08:26.606Z,100.00
2023-04-19T03:10:54.232Z,100.00
2023-04-19T03:13:22.034Z,100.00
2023-04-19T03:15:50.159Z,100.00
2023-04-19T03:18:21.647Z,100.00
2023-04-19T03:20:49.307Z,100.00
2023-04-19T03:23:18.420Z,100.00
2023-04-19T03:25:47.145Z,100.00
2023-04-19T03:28:31.803Z,100.00
2023-04-19T03:31:17.991Z,100.00
2023-04-19T03:33:49.385Z,100.00
2023-04-19T03:36:18.127Z,100.00
2023-04-19T03:38:48.820Z,100.00
2023-04-19T03:41:22.098Z,100.00
2023-04-19T03:43:54.984Z,100.00
2023-04-19T03:46:25.719Z,100.00
2023-04-19T03:48:53.978Z,100.00
2023-04-19T03:51:23.146Z,100.00
2023-04-19T03:53:52.202Z,100.00
2023-04-19T03:56:20.487Z,100.00
2023-04-19T03:58:51.493Z,100.00
2023-04-19T04:01:19.896Z,100.00
2023-04-19T04:03:48.225Z,100.00
2023-04-19T04:06:16.167Z,100.00
2023-04-19T04:08:43.984Z,100.00
2023-04-19T04:11:13.088Z,100.00
2023-04-19T04:13:40.885Z,100.00
2023-04-19T04:16:21.728Z,100.00
2023-04-19T04:18:51.692Z,100.00
2023-04-19T04:21:19.526Z,100.00
2023-04-19T04:23:49.919Z,100.00
2023-04-19T04:26:39.637Z,100.00
2023-04-19T04:29:29.022Z,100.00
2023-04-19T04:31:59.233Z,100.00
2023-04-19T04:34:33.029Z,100.00
2023-04-19T04:37:08.733Z,100.00
2023-04-19T04:39:39.325Z,100.00
2023-04-19T04:42:09.918Z,100.00
2023-04-19T04:44:38.854Z,100.00
2023-04-19T04:47:08.123Z,100.00
2023-04-19T04:49:42.128Z,100.00
2023-04-19T04:52:10.203Z,100.00
2023-04-19T04:54:48.043Z,100.00
2023-04-19T04:57:25.065Z,100.00
2023-04-19T04:59:52.832Z,100.00
2023-04-19T05:02:22.549Z,100.00
2023-04-19T05:04:52.327Z,100.00
2023-04-19T05:07:19.960Z,100.00
2023-04-19T05:09:47.677Z,100.00
2023-04-19T05:12:20.283Z,100.00
2023-04-19T05:14:49.219Z,100.00
2023-04-19T05:17:17.176Z,100.00
2023-04-19T05:19:46.272Z,100.00
2023-04-19T05:22:13.973Z,100.00
2023-04-19T05:24:42.853Z,100.00
2023-04-19T05:27:11.766Z,100.00
2023-04-19T05:29:39.498Z,100.00
2023-04-19T05:32:08.914Z,100.00
2023-04-19T05:34:48.454Z,100.00
2023-04-19T05:37:17.271Z,100.00
2023-04-19T05:39:45.180Z,100.00
2023-04-19T05:42:12.879Z,100.00
2023-04-19T05:44:40.622Z,100.00
2023-04-19T05:47:09.816Z,100.00
2023-04-19T05:50:05.905Z,100.00
2023-04-19T05:52:40.068Z,100.00
2023-04-19T05:55:08.422Z,100.00
2023-04-19T05:57:41.540Z,100.00
2023-04-19T06:00:12.598Z,100.00
2023-04-19T06:03:01.631Z,100.00
2023-04-19T06:05:29.873Z,100.00
2023-04-19T06:08:02.476Z,100.00
2023-04-19T06:10:40.497Z,100.00
2023-04-19T06:13:18.625Z,100.00
2023-04-19T06:15:47.119Z,100.00
2023-04-19T06:18:19.583Z,100.00
2023-04-19T06:20:48.214Z,100.00
2023-04-19T06:23:17.153Z,100.00
2023-04-19T06:25:45.087Z,100.00
2023-04-19T06:28:12.841Z,100.00
2023-04-19T06:30:40.537Z,100.00
2023-04-19T06:33:08.181Z,100.00
2023-04-19T06:35:37.574Z,100.00
2023-04-19T06:38:05.189Z,100.00
2023-04-19T06:40:32.862Z,99.97
2023-04-19T06:43:00.560Z,99.73
2023-04-19T06:45:29.259Z,100.00
2023-04-19T06:47:56.975Z,99.70
2023-04-19T06:50:24.800Z,95.69
2023-04-19T06:52:54.356Z,93.28
2023-04-19T06:55:22.249Z,94.22
2023-04-19T06:57:49.956Z,94.01
2023-04-19T07:00:18.550Z,100.00
2023-04-19T07:02:46.304Z,95.40
2023-04-19T07:05:14.284Z,93.37
2023-04-19T07:07:42.149Z,94.65
2023-04-19T07:10:12.811Z,90.88
2023-04-19T07:12:40.470Z,92.81
2023-04-19T07:15:09.268Z,91.66
2023-04-19T07:17:37.651Z,93.25
2023-04-19T07:20:06.732Z,93.83
2023-04-19T07:22:34.398Z,92.96
2023-04-19T07:25:02.080Z,93.50
2023-04-19T07:27:31.083Z,96.01
2023-04-19T07:29:58.813Z,98.01
2023-04-19T07:32:26.781Z,95.68
2023-04-19T07:34:54.437Z,98.80
2023-04-19T07:37:22.397Z,96.27
2023-04-19T07:39:50.123Z,95.75
2023-04-19T07:42:17.798Z,97.59
2023-04-19T07:44:46.853Z,95.26
2023-04-19T07:47:14.509Z,96.55
2023-04-19T07:49:44.273Z,98.33
2023-04-19T07:52:11.907Z,97.74
2023-04-19T07:54:40.082Z,97.83
2023-04-19T07:57:07.754Z,98.56
2023-04-19T07:59:35.415Z,96.46
2023-04-19T08:02:04.558Z,95.96
2023-04-19T08:04:32.695Z,93.32
2023-04-19T08:07:00.834Z,92.90
2023-04-19T08:09:28.564Z,94.15
2023-04-19T08:11:57.040Z,91.83
2023-04-19T08:14:37.799Z,91.44
2023-04-19T08:17:25.581Z,91.34
2023-04-19T08:19:54.739Z,90.18
2023-04-19T08:22:22.616Z,92.64
2023-04-19T08:24:51.417Z,86.78
2023-04-19T08:27:19.492Z,85.65
2023-04-19T08:29:47.537Z,86.22
2023-04-19T08:32:16.782Z,88.08
2023-04-19T08:34:44.560Z,87.35
2023-04-19T08:37:12.268Z,88.14
2023-04-19T08:39:40.229Z,85.16
2023-04-19T08:42:18.411Z,87.79
2023-04-19T08:45:23.421Z,84.56
2023-04-19T08:47:58.642Z,84.25
2023-04-19T08:53:12.269Z,87.82
2023-04-19T08:55:51.018Z,84.16
2023-04-19T08:58:51.936Z,87.02
2023-04-19T09:01:34.048Z,86.64
2023-04-19T09:04:16.918Z,87.82
2023-04-19T09:06:55.076Z,87.29
2023-04-19T09:11:55.226Z,86.88
2023-04-19T09:14:24.114Z,85.91
2023-04-19T09:16:52.841Z,85.46
2023-04-19T09:19:25.282Z,84.89
2023-04-19T09:21:54.729Z,85.89
2023-04-19T09:27:12.043Z,88.91
2023-04-19T09:29:40.017Z,85.97
2023-04-19T09:32:07.938Z,89.84
2023-04-19T09:34:37.020Z,93.95
2023-04-19T09:37:21.530Z,90.83
2023-04-19T09:40:00.592Z,90.22
2023-04-19T09:48:02.102Z,90.75
2023-04-19T09:50:31.799Z,89.80
2023-04-19T09:53:00.972Z,84.35
2023-04-19T09:55:30.345Z,88.15
2023-04-19T09:58:03.514Z,89.67
2023-04-19T10:00:36.166Z,91.88
2023-04-19T10:03:13.644Z,88.57
2023-04-19T10:05:44.259Z,84.17
2023-04-19T10:08:13.558Z,87.19
2023-04-19T10:10:42.891Z,87.20
2023-04-19T10:15:51.266Z,81.23
2023-04-19T10:18:23.915Z,74.82
2023-04-19T10:20:59.824Z,70.47
2023-04-19T10:23:28.861Z,71.81
2023-04-19T10:25:57.871Z,74.15
2023-04-19T10:28:29.629Z,71.78
2023-04-19T10:31:02.325Z,68.58
2023-04-19T10:33:36.689Z,66.98
2023-04-19T10:36:10.590Z,64.77
2023-04-19T10:38:40.450Z,59.30
2023-04-19T10:41:17.034Z,62.40
2023-04-19T10:43:48.065Z,59.41
2023-04-19T10:46:18.410Z,55.33
2023-04-19T10:48:54.474Z,54.66
2023-04-19T10:51:27.802Z,54.96
2023-04-19T10:53:57.931Z,56.74
2023-04-19T10:57:02.161Z,59.46
2023-04-19T10:59:31.600Z,57.46
2023-04-19T11:02:01.086Z,57.69
2023-04-19T11:05:04.207Z,58.11
2023-04-19T11:07:41.507Z,55.42
2023-04-19T11:10:11.453Z,56.82
2023-04-19T11:12:43.372Z,56.31
2023-04-19T11:15:11.876Z,54.85
2023-04-19T11:17:39.778Z,55.25
2023-04-19T11:20:10.757Z,53.90
2023-04-19T11:22:41.237Z,53.79
2023-04-19T11:25:13.078Z,55.52
2023-04-19T11:27:42.754Z,52.96
2023-04-19T11:30:12.605Z,53.51
2023-04-19T11:32:46.581Z,52.42
2023-04-19T11:35:14.671Z,50.77
2023-04-19T11:37:44.026Z,52.23
2023-04-19T11:40:16.075Z,54.48
2023-04-19T11:42:44.080Z,52.79
2023-04-19T11:45:22.338Z,54.02
2023-04-19T11:47:57.422Z,52.75
2023-04-19T11:50:35.482Z,52.28
2023-04-19T11:53:16.057Z,51.64
2023-04-19T11:55:45.332Z,50.57
2023-04-19T11:58:29.072Z,50.09
2023-04-19T12:00:58.231Z,46.45
2023-04-19T12:03:27.280Z,46.96
2023-04-19T12:06:00.132Z,46.77
2023-04-19T12:08:34.297Z,47.59
2023-04-19T12:11:03.531Z,50.67
2023-04-19T12:13:32.155Z,47.92
2023-04-19T12:16:00.702Z,44.97
2023-04-19T12:18:28.442Z,44.21
2023-04-19T12:20:56.226Z,43.47
2023-04-19T12:23:23.929Z,43.79
2023-04-19T12:25:53.776Z,45.28
2023-04-19T12:28:21.514Z,45.32
2023-04-19T12:30:49.150Z,43.88
2023-04-19T12:33:16.890Z,44.84
2023-04-19T12:35:44.965Z,46.45
2023-04-19T12:38:12.678Z,46.18
2023-04-19T12:40:40.342Z,45.49
2023-04-19T12:43:09.406Z,46.67
2023-04-19T12:45:37.140Z,45.43
2023-04-19T12:48:05.040Z,45.98
2023-04-19T12:50:32.752Z,45.38
2023-04-19T12:53:00.423Z,45.10
2023-04-19T12:55:28.236Z,46.45
2023-04-19T12:57:55.863Z,46.30
2023-04-19T13:00:25.088Z,45.11
2023-04-19T13:02:52.828Z,45.44
2023-04-19T13:05:20.815Z,45.50
2023-04-19T13:07:48.576Z,44.70
2023-04-19T13:10:16.693Z,45.53
2023-04-19T13:12:44.479Z,45.83
2023-04-19T13:15:12.607Z,46.04
2023-04-19T13:17:41.596Z,46.32
2023-04-19T13:20:10.550Z,44.03
2023-04-19T13:22:38.568Z,46.33
2023-04-19T13:25:06.967Z,43.88
2023-04-19T13:27:34.626Z,43.04
2023-04-19T13:30:02.306Z,41.03
2023-04-19T13:32:30.332Z,42.49
2023-04-19T13:34:59.390Z,41.57
2023-04-19T13:37:27.040Z,43.77
2023-04-19T13:40:03.959Z,42.10
2023-04-19T13:42:39.264Z,42.18
2023-04-19T13:45:08.023Z,42.75
2023-04-19T13:47:35.733Z,41.42
2023-04-19T13:50:05.684Z,41.05
2023-04-19T13:52:33.428Z,41.96
2023-04-19T13:55:01.077Z,42.54
2023-04-19T13:57:29.001Z,42.57
2023-04-19T13:59:56.664Z,40.06
2023-04-19T14:02:24.565Z,42.24
2023-04-19T14:04:52.379Z,41.37
2023-04-19T14:07:21.388Z,40.88
2023-04-19T14:09:49.039Z,39.24
2023-04-19T14:12:16.721Z,38.27
2023-04-19T14:14:44.410Z,39.46
2023-04-19T14:17:12.084Z,37.77
2023-04-19T14:19:39.748Z,39.36
2023-04-19T14:22:07.434Z,37.13
2023-04-19T14:24:36.529Z,36.79
2023-04-19T14:27:10.996Z,35.25
2023-04-19T14:29:39.136Z,34.93
2023-04-19T14:32:23.458Z,35.92
2023-04-19T14:34:52.654Z,34.73
2023-04-19T14:37:20.402Z,34.02
2023-04-19T14:39:49.435Z,34.01
2023-04-19T14:42:17.175Z,35.17
2023-04-19T14:44:45.629Z,35.03
2023-04-19T14:47:13.703Z,34.61
2023-04-19T14:49:42.213Z,33.78
2023-04-19T14:52:09.950Z,34.48
2023-04-19T14:54:37.655Z,33.87
2023-04-19T14:57:06.725Z,35.16
2023-04-19T14:59:34.437Z,34.83
2023-04-19T15:02:02.318Z,33.53
2023-04-19T15:04:30.147Z,34.12
2023-04-19T15:06:57.857Z,33.58
2023-04-19T15:09:25.511Z,31.40
2023-04-19T15:11:53.151Z,33.29
2023-04-19T15:14:28.669Z,32.15
2023-04-19T15:16:56.315Z,32.15
2023-04-19T15:19:24.077Z,31.43
2023-04-19T15:21:51.705Z,31.13
2023-04-19T15:24:19.447Z,30.50
2023-04-19T15:26:47.554Z,31.00
2023-04-19T15:29:15.805Z,32.02
2023-04-19T15:31:45.201Z,30.98
2023-04-19T15:34:12.887Z,30.23
2023-04-19T15:36:41.270Z,31.67
2023-04-19T15:39:09.172Z,31.04
2023-04-19T15:41:36.882Z,31.48
2023-04-19T15:44:04.534Z,32.55
2023-04-19T15:46:32.318Z,32.09
2023-04-19T15:49:01.788Z,31.17
2023-04-19T15:51:29.384Z,32.26
2023-04-19T15:53:57.446Z,31.94
2023-04-19T15:56:25.177Z,30.71
2023-04-19T15:58:53.176Z,31.70
2023-04-19T16:01:22.831Z,32.73
2023-04-19T16:03:50.733Z,31.81
2023-04-19T16:06:19.787Z,30.92
2023-04-19T16:08:47.473Z,32.74
2023-04-19T16:11:15.176Z,33.01
2023-04-19T16:13:42.822Z,32.49
2023-04-19T16:16:10.547Z,32.89
2023-04-19T16:18:38.336Z,32.29
2023-04-19T16:21:06.458Z,31.59
2023-04-19T16:23:35.475Z,32.54
2023-04-19T16:26:03.114Z,32.37
2023-04-19T16:28:30.859Z,32.63
2023-04-19T16:30:58.597Z,32.88
2023-04-19T16:33:26.267Z,31.96
2023-04-19T16:35:54.071Z,34.11
2023-04-19T16:38:21.719Z,32.98
2023-04-19T16:40:51.426Z,31.73
2023-04-19T16:43:20.741Z,34.35
2023-04-19T16:45:48.636Z,33.48
2023-04-19T16:48:16.431Z,33.20
2023-04-19T16:50:44.338Z,33.79
2023-04-19T16:53:12.547Z,32.24
2023-04-19T16:55:40.234Z,32.77
2023-04-19T16:58:09.254Z,33.17
2023-04-19T17:00:36.894Z,32.87
2023-04-19T17:03:04.967Z,32.49
2023-04-19T17:05:32.715Z,33.27
2023-04-19T17:08:00.376Z,34.01
2023-04-19T17:10:28.587Z,35.40
2023-04-19T17:12:56.406Z,35.45
2023-04-19T17:15:26.001Z,36.19
2023-04-19T17:17:53.789Z,39.19
2023-04-19T17:20:21.597Z,35.38
2023-04-19T17:22:49.259Z,35.91
2023-04-19T17:25:16.959Z,37.22
2023-04-19T17:27:46.581Z,36.86
2023-04-19T17:30:14.793Z,36.75
2023-04-19T17:32:43.839Z,36.80
2023-04-19T17:35:11.511Z,39.55
2023-04-19T17:37:39.174Z,38.44
2023-04-19T17:40:08.252Z,38.14
2023-04-19T17:42:35.940Z,38.33
2023-04-19T17:45:04.186Z,36.67
2023-04-19T17:47:32.325Z,35.93
2023-04-19T17:50:07.943Z,36.78
2023-04-19T17:52:35.663Z,39.06
2023-04-19T17:55:04.654Z,40.39
2023-04-19T17:57:33.975Z,40.08
2023-04-19T18:00:06.556Z,41.30
2023-04-19T18:02:37.037Z,43.53
2023-04-19T18:05:07.400Z,42.40
2023-04-19T18:07:36.684Z,44.39
2023-04-19T18:10:04.808Z,47.15
2023-04-19T18:12:32.791Z,47.52
2023-04-19T18:15:00.524Z,49.23
2023-04-19T18:17:28.183Z,45.78
2023-04-19T18:19:55.861Z,47.42
2023-04-19T18:22:24.831Z,45.38
2023-04-19T18:24:53.456Z,47.08
2023-04-19T18:27:21.204Z,48.33
2023-04-19T18:29:51.813Z,46.96
2023-04-19T18:32:21.621Z,47.06
2023-04-19T18:34:49.367Z,47.62
2023-04-19T18:37:17.805Z,45.77
2023-04-19T18:39:47.114Z,49.17
2023-04-19T18:42:14.782Z,49.30
2023-04-19T18:47:13.068Z,48.59
2023-04-19T18:49:40.787Z,49.76
2023-04-19T18:52:08.413Z,48.65
2023-04-19T18:54:36.197Z,50.00
2023-04-19T18:57:22.752Z,48.50
2023-04-19T18:59:50.954Z,48.07
2023-04-19T19:02:18.839Z,48.64
2023-04-19T19:04:55.874Z,48.67
2023-04-19T19:07:35.582Z,49.11
2023-04-19T19:10:17.287Z,48.46
2023-04-19T19:12:50.264Z,51.01
2023-04-19T19:15:18.199Z,49.35
2023-04-19T19:17:49.373Z,51.99
2023-04-19T19:20:18.523Z,50.02
2023-04-19T19:22:46.440Z,51.72
2023-04-19T19:25:14.130Z,52.43
2023-04-19T19:27:49.865Z,52.54
2023-04-19T19:30:33.607Z,49.67
2023-04-19T19:33:02.740Z,48.23
2023-04-19T19:35:30.576Z,50.98
2023-04-19T19:37:58.306Z,54.86
2023-04-19T19:40:26.961Z,52.26
2023-04-19T19:42:58.603Z,53.14
2023-04-19T19:45:28.218Z,54.90
2023-04-19T19:47:59.085Z,53.96
2023-04-19T19:53:00.236Z,57.18
2023-04-19T19:55:28.375Z,58.64
2023-04-19T20:02:59.118Z,61.48
2023-04-19T20:05:27.778Z,60.35
2023-04-19T20:08:06.111Z,61.51
2023-04-19T20:10:34.282Z,61.48
2023-04-19T20:13:02.310Z,61.55
2023-04-19T20:15:30.941Z,61.35
2023-04-19T20:18:00.032Z,63.48
2023-04-19T20:20:27.869Z,63.93
2023-04-19T20:22:55.994Z,64.11
2023-04-19T20:25:23.763Z,62.19
2023-04-19T20:27:51.461Z,66.40
2023-04-19T20:30:19.075Z,67.58
2023-04-19T20:32:48.313Z,66.50
2023-04-19T20:35:17.999Z,68.25
2023-04-19T20:37:47.380Z,68.34
2023-04-19T20:40:16.373Z,67.93
2023-04-19T20:42:44.770Z,66.84
2023-04-19T20:45:14.104Z,67.51
2023-04-19T20:47:42.746Z,68.57
2023-04-19T20:50:11.128Z,70.12
2023-04-19T20:52:40.449Z,71.23
2023-04-19T20:55:09.052Z,68.70
2023-04-19T20:57:36.708Z,71.07
2023-04-19T21:00:07.948Z,70.91
2023-04-19T21:02:35.757Z,69.82
2023-04-19T21:05:03.475Z,71.24
2023-04-19T21:07:31.173Z,72.35
2023-04-19T21:10:00.406Z,70.34
2023-04-19T21:12:28.594Z,70.06
2023-04-19T21:14:56.428Z,71.92
2023-04-19T21:17:24.114Z,71.88
2023-04-19T21:19:51.834Z,74.88
2023-04-19T21:22:19.557Z,71.07
2023-04-19T21:24:47.741Z,73.18
2023-04-19T21:27:16.881Z,74.31
2023-04-19T21:29:44.946Z,75.96
2023-04-19T21:32:12.838Z,75.68
2023-04-19T21:34:40.664Z,74.75
2023-04-19T21:37:08.623Z,76.48
2023-04-19T21:39:36.542Z,72.96
2023-04-19T21:42:04.454Z,74.48
2023-04-19T21:44:34.414Z,77.77
2023-04-19T21:47:02.357Z,75.63
2023-04-19T21:49:31.015Z,78.52
2023-04-19T21:51:59.005Z,80.69
2023-04-19T21:54:33.924Z,79.40
2023-04-19T21:57:03.253Z,79.91
2023-04-19T21:59:31.542Z,79.98
2023-04-19T22:02:01.759Z,81.14
2023-04-19T22:04:31.098Z,81.63
2023-04-19T22:07:02.378Z,81.30
2023-04-19T22:09:31.094Z,80.52
2023-04-19T22:12:00.214Z,82.21
2023-04-19T22:14:30.796Z,84.75
2023-04-19T22:17:02.670Z,88.21
2023-04-19T22:19:32.652Z,86.96
2023-04-19T22:22:00.789Z,85.17
2023-04-19T22:24:29.044Z,85.19
2023-04-19T22:26:57.496Z,85.21
2023-04-19T22:29:25.705Z,86.80
2023-04-19T22:31:54.180Z,88.38
2023-04-19T22:34:22.892Z,87.87
2023-04-19T22:36:52.486Z,90.07
2023-04-19T22:39:20.802Z,88.62
2023-04-19T22:41:49.057Z,90.85
2023-04-19T22:44:17.452Z,90.28
2023-04-19T22:46:46.023Z,90.65
2023-04-19T22:49:14.330Z,89.92
2023-04-19T22:51:42.438Z,90.85
2023-04-19T22:54:12.001Z,93.10
2023-04-19T22:56:40.428Z,89.68
2023-04-19T22:59:08.973Z,91.78
2023-04-19T23:01:37.123Z,94.04
2023-04-19T23:04:05.342Z,98.17
2023-04-19T23:06:33.862Z,97.70
2023-04-19T23:09:02.075Z,95.76
2023-04-19T23:11:31.698Z,97.61
2023-04-19T23:13:59.780Z,98.98
2023-04-19T23:16:28.930Z,100.00
2023-04-19T23:18:56.950Z,100.00
2023-04-19T23:21:24.686Z,100.00
2023-04-19T23:23:52.866Z,100.00
2023-04-19T23:26:21.524Z,100.00
2023-04-19T23:28:50.512Z,100.00
2023-04-19T23:31:18.324Z,100.00
2023-04-19T23:33:46.343Z,100.00
2023-04-19T23:36:13.993Z,100.00
2023-04-19T23:38:41.691Z,100.00
2023-04-19T23:41:10.955Z,100.00
2023-04-19T23:43:38.727Z,100.00
2023-04-19T23:46:08.530Z,100.00
2023-04-19T23:48:36.335Z,100.00
2023-04-19T23:51:04.071Z,100.00
2023-04-19T23:53:31.855Z,100.00
2023-04-19T23:55:59.818Z,100.00
2023-04-19T23:58:27.518Z,100.00
